A- A+ FrançaisEnglishEspañol中国

le plus proche LFBT Tarbes-Lourdes-PyrénéesLFMP Perpignan-RivesalterLFTH Hyeres-Le-Palyvestre LFBZ Biarritz-Bayonne-Anglet

manche à air

La météo aéronautique pour les pilotes, la préparation du vol avec les METAR (METeorological Aerodrome Report, message d'observation des conditions météorologiques pour l'aviation) et Les TAF (Terminal Aerodrome Forecast : message de prévision à court terme des conditions météorologiques pour l'aviation). Et les autres ressources comme les VAC (Visual Approch Chart) et les NOTAM (Notice To Airman) pour préprer les vols.

Aéroport Narsarsuaq (Groenland) / OACI BGBW/ IATA UAK

L'altitude de l'aéroport Narsarsuaq est de 34 m=112 ft. Il est situé à proximité de Narsarsuaq (Groenland). La météo générale à 5 jours est disponible pour Narsarsuaq situé à 0.9 km.

METAR de l'aéroport Narsarsuaq - BGBW

BGBW 291150Z 07017KT 9999 FEW065 SCT110 BKN130 13/M06 Q1016

Décodage du METAR de l'aéroport Narsarsuaq (GL)

METAR émis par BGBW le dimanche 29 septembre 2019 à 11:50 heure TU. Attention ce METAR est obsolète car il a été émis il y a 14 heure et 2 minutes.

La visibilité est de supérieure à 10 km=supérieure à 6.2 sm.

La température est de 13°C=55 °F et le point rosée est de -6°C=21 °F . Ce qui correspond à 26% d'humidité relative.

Le QNH est de 1016 hPa=30 inHg

Vent de 17 kt=31 km/h, orienté à 70°.

Nuages : Quelques nuages à 6500 ft=1980 mètres. Nuages épars à 11000 ft=3350 mètres. Couverture nuageuse fragmentée à 13000 ft=3960 mètres.

TAF de l'aéroport Narsarsuaq - BGBW

BGBW 290904Z 2909/2918 08018KT 9999 SCT120 BECMG 2912/2915 VRB08KT

BGBW 290904Z 2909/2918 08018KT 9999 nuages épars à 120 devenant 2912/2915 VRB08KT

Aéroport à proximité de Narsarsuaq

Météo générale à 5 jours à Narsarsuaq (0.9 km)BGGH Aéroport Nuuk (464 km)BGMQ Aéroport Maniitsoq (603 km)BGKK Aéroport Kulusuk (641 km)BGSF Aéroport Kangerlussuaq (699 km)BGSS Aéroport Sisimiut (759 km)BGAA Aéroport Aaisiaat (908 km)

Vue aérienne de l'aéroport Narsarsuaq

NOTAM de l'aéroport Narsarsuaq

Les NOTAM sont fournis sans aucune garantie de leur actualité. Le pilote est le seul responsable de la vérification de sa validité avant de l'utiliser opérationnellement pour préparer un vol ou l'utiliser lors de sa navigation.

Pas de NOTAM

Sources des données